sensor_id;sensor_type;location;lat;lon;timestamp;temperature;humidity
10492;DHT22;5293;51.464;-2.566;2022-07-29T00:02:04;18.10;99.90
10492;DHT22;5293;51.464;-2.566;2022-07-29T00:04:29;18.10;99.90
10492;DHT22;5293;51.464;-2.566;2022-07-29T00:06:55;18.10;99.90
10492;DHT22;5293;51.464;-2.566;2022-07-29T00:09:21;18.10;99.90
10492;DHT22;5293;51.464;-2.566;2022-07-29T00:11:47;18.10;99.90
10492;DHT22;5293;51.464;-2.566;2022-07-29T00:14:13;18.10;99.90
10492;DHT22;5293;51.464;-2.566;2022-07-29T00:16:38;18.00;99.90
10492;DHT22;5293;51.464;-2.566;2022-07-29T00:19:04;17.90;99.90
10492;DHT22;5293;51.464;-2.566;2022-07-29T00:21:30;17.90;99.90
10492;DHT22;5293;51.464;-2.566;2022-07-29T00:23:55;17.90;99.90
10492;DHT22;5293;51.464;-2.566;2022-07-29T00:26:21;17.90;99.90
10492;DHT22;5293;51.464;-2.566;2022-07-29T00:28:47;18.00;99.90
10492;DHT22;5293;51.464;-2.566;2022-07-29T00:31:12;17.90;99.90
10492;DHT22;5293;51.464;-2.566;2022-07-29T00:33:38;17.90;99.90
10492;DHT22;5293;51.464;-2.566;2022-07-29T00:36:04;17.90;99.90
10492;DHT22;5293;51.464;-2.566;2022-07-29T00:38:29;17.90;99.90
10492;DHT22;5293;51.464;-2.566;2022-07-29T00:40:55;17.90;99.90
10492;DHT22;5293;51.464;-2.566;2022-07-29T00:43:21;17.80;99.90
10492;DHT22;5293;51.464;-2.566;2022-07-29T00:45:46;17.90;99.90
10492;DHT22;5293;51.464;-2.566;2022-07-29T00:48:12;17.90;99.90
10492;DHT22;5293;51.464;-2.566;2022-07-29T00:50:38;17.90;99.90
10492;DHT22;5293;51.464;-2.566;2022-07-29T00:53:06;17.90;99.90
10492;DHT22;5293;51.464;-2.566;2022-07-29T00:55:32;17.90;99.90
10492;DHT22;5293;51.464;-2.566;2022-07-29T00:57:58;17.80;99.90
10492;DHT22;5293;51.464;-2.566;2022-07-29T01:00:26;17.80;99.90
10492;DHT22;5293;51.464;-2.566;2022-07-29T01:02:52;17.90;99.90
10492;DHT22;5293;51.464;-2.566;2022-07-29T01:05:22;17.80;99.90
10492;DHT22;5293;51.464;-2.566;2022-07-29T01:07:51;17.80;99.90
10492;DHT22;5293;51.464;-2.566;2022-07-29T01:10:19;17.80;99.90
10492;DHT22;5293;51.464;-2.566;2022-07-29T01:12:48;17.70;99.90
10492;DHT22;5293;51.464;-2.566;2022-07-29T01:15:14;17.70;99.90
10492;DHT22;5293;51.464;-2.566;2022-07-29T01:17:54;17.80;99.90
10492;DHT22;5293;51.464;-2.566;2022-07-29T01:20:30;17.80;99.90
10492;DHT22;5293;51.464;-2.566;2022-07-29T01:28:57;17.80;99.90
10492;DHT22;5293;51.464;-2.566;2022-07-29T01:31:33;17.80;99.90
10492;DHT22;5293;51.464;-2.566;2022-07-29T01:34:05;17.70;99.90
10492;DHT22;5293;51.464;-2.566;2022-07-29T01:36:36;17.80;99.90
10492;DHT22;5293;51.464;-2.566;2022-07-29T01:39:11;17.80;99.90
10492;DHT22;5293;51.464;-2.566;2022-07-29T01:47:23;17.60;99.90
10492;DHT22;5293;51.464;-2.566;2022-07-29T01:49:51;17.60;99.90
10492;DHT22;5293;51.464;-2.566;2022-07-29T01:52:46;17.60;99.90
10492;DHT22;5293;51.464;-2.566;2022-07-29T01:55:16;17.60;99.90
10492;DHT22;5293;51.464;-2.566;2022-07-29T01:57:45;17.50;99.90
10492;DHT22;5293;51.464;-2.566;2022-07-29T02:00:12;17.60;99.90
10492;DHT22;5293;51.464;-2.566;2022-07-29T02:02:41;17.60;99.90
10492;DHT22;5293;51.464;-2.566;2022-07-29T02:05:10;17.60;99.90
10492;DHT22;5293;51.464;-2.566;2022-07-29T02:07:37;17.60;99.90
10492;DHT22;5293;51.464;-2.566;2022-07-29T02:10:04;17.60;99.90
10492;DHT22;5293;51.464;-2.566;2022-07-29T02:12:31;17.60;99.90
10492;DHT22;5293;51.464;-2.566;2022-07-29T02:15:00;17.60;99.90
10492;DHT22;5293;51.464;-2.566;2022-07-29T02:17:32;17.60;99.90
10492;DHT22;5293;51.464;-2.566;2022-07-29T02:20:00;17.50;99.90
10492;DHT22;5293;51.464;-2.566;2022-07-29T02:22:29;17.50;99.90
10492;DHT22;5293;51.464;-2.566;2022-07-29T02:24:55;17.50;99.90
10492;DHT22;5293;51.464;-2.566;2022-07-29T02:27:24;17.40;99.90
10492;DHT22;5293;51.464;-2.566;2022-07-29T02:29:52;17.40;99.90
10492;DHT22;5293;51.464;-2.566;2022-07-29T02:32:20;17.40;99.90
10492;DHT22;5293;51.464;-2.566;2022-07-29T02:34:47;17.40;99.90
10492;DHT22;5293;51.464;-2.566;2022-07-29T02:37:15;17.40;99.90
10492;DHT22;5293;51.464;-2.566;2022-07-29T02:39:42;17.40;99.90
10492;DHT22;5293;51.464;-2.566;2022-07-29T02:42:13;17.30;99.90
10492;DHT22;5293;51.464;-2.566;2022-07-29T02:44:40;17.20;99.90
10492;DHT22;5293;51.464;-2.566;2022-07-29T02:47:34;17.20;99.90
10492;DHT22;5293;51.464;-2.566;2022-07-29T02:50:50;17.10;99.90
10492;DHT22;5293;51.464;-2.566;2022-07-29T02:53:09;17.10;99.90
10492;DHT22;5293;51.464;-2.566;2022-07-29T02:55:40;17.10;99.90
10492;DHT22;5293;51.464;-2.566;2022-07-29T03:00:43;17.00;99.90
10492;DHT22;5293;51.464;-2.566;2022-07-29T03:03:15;16.90;99.90
10492;DHT22;5293;51.464;-2.566;2022-07-29T03:05:41;16.90;99.90
10492;DHT22;5293;51.464;-2.566;2022-07-29T03:08:10;17.00;99.90
10492;DHT22;5293;51.464;-2.566;2022-07-29T03:10:39;16.90;99.90
10492;DHT22;5293;51.464;-2.566;2022-07-29T03:13:05;16.90;99.90
10492;DHT22;5293;51.464;-2.566;2022-07-29T03:15:31;16.80;99.90
10492;DHT22;5293;51.464;-2.566;2022-07-29T03:17:58;16.80;99.90
10492;DHT22;5293;51.464;-2.566;2022-07-29T03:20:24;16.70;99.90
10492;DHT22;5293;51.464;-2.566;2022-07-29T03:22:50;16.70;99.90
10492;DHT22;5293;51.464;-2.566;2022-07-29T03:25:17;16.80;99.90
10492;DHT22;5293;51.464;-2.566;2022-07-29T03:27:44;16.70;99.90
10492;DHT22;5293;51.464;-2.566;2022-07-29T03:30:11;16.60;99.90
10492;DHT22;5293;51.464;-2.566;2022-07-29T03:32:39;16.60;99.90
10492;DHT22;5293;51.464;-2.566;2022-07-29T03:35:06;16.90;99.90
10492;DHT22;5293;51.464;-2.566;2022-07-29T03:37:32;16.60;99.90
10492;DHT22;5293;51.464;-2.566;2022-07-29T03:40:00;16.60;99.90
10492;DHT22;5293;51.464;-2.566;2022-07-29T03:42:30;16.50;99.90
10492;DHT22;5293;51.464;-2.566;2022-07-29T03:44:58;16.50;99.90
10492;DHT22;5293;51.464;-2.566;2022-07-29T03:47:28;16.40;99.90
10492;DHT22;5293;51.464;-2.566;2022-07-29T03:50:00;16.40;99.90
10492;DHT22;5293;51.464;-2.566;2022-07-29T03:52:27;16.40;99.90
10492;DHT22;5293;51.464;-2.566;2022-07-29T03:54:53;16.40;99.90
10492;DHT22;5293;51.464;-2.566;2022-07-29T03:57:20;16.40;99.90
10492;DHT22;5293;51.464;-2.566;2022-07-29T03:59:49;16.30;99.90
10492;DHT22;5293;51.464;-2.566;2022-07-29T04:02:16;16.20;99.90
10492;DHT22;5293;51.464;-2.566;2022-07-29T04:04:42;16.30;99.90
10492;DHT22;5293;51.464;-2.566;2022-07-29T04:07:14;16.20;99.90
10492;DHT22;5293;51.464;-2.566;2022-07-29T04:09:41;16.20;99.90
10492;DHT22;5293;51.464;-2.566;2022-07-29T04:12:07;16.20;99.90
10492;DHT22;5293;51.464;-2.566;2022-07-29T04:14:34;16.10;99.90
10492;DHT22;5293;51.464;-2.566;2022-07-29T04:17:00;16.20;99.90
10492;DHT22;5293;51.464;-2.566;2022-07-29T04:19:26;16.10;99.90
10492;DHT22;5293;51.464;-2.566;2022-07-29T04:21:52;16.00;99.90
10492;DHT22;5293;51.464;-2.566;2022-07-29T04:24:18;16.00;99.90
10492;DHT22;5293;51.464;-2.566;2022-07-29T04:26:46;16.00;99.90
10492;DHT22;5293;51.464;-2.566;2022-07-29T04:29:12;15.90;99.90
10492;DHT22;5293;51.464;-2.566;2022-07-29T04:31:39;16.00;99.90
10492;DHT22;5293;51.464;-2.566;2022-07-29T04:34:05;15.90;99.90
10492;DHT22;5293;51.464;-2.566;2022-07-29T04:36:31;16.00;99.90
10492;DHT22;5293;51.464;-2.566;2022-07-29T04:38:57;16.00;99.90
10492;DHT22;5293;51.464;-2.566;2022-07-29T04:41:23;16.00;99.90
10492;DHT22;5293;51.464;-2.566;2022-07-29T04:43:48;15.90;99.90
10492;DHT22;5293;51.464;-2.566;2022-07-29T04:46:14;16.00;99.90
10492;DHT22;5293;51.464;-2.566;2022-07-29T04:48:40;15.90;99.90
10492;DHT22;5293;51.464;-2.566;2022-07-29T04:51:05;15.90;99.90
10492;DHT22;5293;51.464;-2.566;2022-07-29T04:53:31;15.90;99.90
10492;DHT22;5293;51.464;-2.566;2022-07-29T04:55:57;15.80;99.90
10492;DHT22;5293;51.464;-2.566;2022-07-29T04:58:22;15.80;99.90
10492;DHT22;5293;51.464;-2.566;2022-07-29T05:00:49;15.80;99.90
10492;DHT22;5293;51.464;-2.566;2022-07-29T05:03:15;15.80;99.90
10492;DHT22;5293;51.464;-2.566;2022-07-29T05:05:40;15.90;99.90
10492;DHT22;5293;51.464;-2.566;2022-07-29T05:08:07;15.90;99.90
10492;DHT22;5293;51.464;-2.566;2022-07-29T05:10:33;15.90;99.90
10492;DHT22;5293;51.464;-2.566;2022-07-29T05:13:06;16.10;99.90
10492;DHT22;5293;51.464;-2.566;2022-07-29T05:15:33;16.10;99.90
10492;DHT22;5293;51.464;-2.566;2022-07-29T05:17:59;16.10;99.90
10492;DHT22;5293;51.464;-2.566;2022-07-29T05:20:25;16.10;99.90
10492;DHT22;5293;51.464;-2.566;2022-07-29T05:22:57;16.10;99.90
10492;DHT22;5293;51.464;-2.566;2022-07-29T05:25:23;16.10;99.90
10492;DHT22;5293;51.464;-2.566;2022-07-29T05:27:50;16.10;99.90
10492;DHT22;5293;51.464;-2.566;2022-07-29T05:30:16;16.10;99.90
10492;DHT22;5293;51.464;-2.566;2022-07-29T05:32:41;16.10;99.90
10492;DHT22;5293;51.464;-2.566;2022-07-29T05:35:08;16.10;99.90
10492;DHT22;5293;51.464;-2.566;2022-07-29T05:37:34;16.20;99.90
10492;DHT22;5293;51.464;-2.566;2022-07-29T05:39:59;16.20;99.90
10492;DHT22;5293;51.464;-2.566;2022-07-29T05:42:25;16.20;99.90
10492;DHT22;5293;51.464;-2.566;2022-07-29T05:44:51;16.30;99.90
10492;DHT22;5293;51.464;-2.566;2022-07-29T05:47:17;16.30;99.90
10492;DHT22;5293;51.464;-2.566;2022-07-29T05:49:43;16.30;99.90
10492;DHT22;5293;51.464;-2.566;2022-07-29T05:52:09;16.40;99.90
10492;DHT22;5293;51.464;-2.566;2022-07-29T05:54:35;16.50;99.90
10492;DHT22;5293;51.464;-2.566;2022-07-29T05:57:01;16.60;99.90
10492;DHT22;5293;51.464;-2.566;2022-07-29T05:59:27;16.70;99.90
10492;DHT22;5293;51.464;-2.566;2022-07-29T06:01:52;16.80;99.90
10492;DHT22;5293;51.464;-2.566;2022-07-29T06:04:18;16.90;99.90
10492;DHT22;5293;51.464;-2.566;2022-07-29T06:06:44;17.00;99.90
10492;DHT22;5293;51.464;-2.566;2022-07-29T06:09:09;17.10;99.90
10492;DHT22;5293;51.464;-2.566;2022-07-29T06:11:35;17.20;99.90
10492;DHT22;5293;51.464;-2.566;2022-07-29T06:14:00;17.40;99.90
10492;DHT22;5293;51.464;-2.566;2022-07-29T06:16:28;17.40;99.90
10492;DHT22;5293;51.464;-2.566;2022-07-29T06:18:54;17.50;99.90
10492;DHT22;5293;51.464;-2.566;2022-07-29T06:21:19;17.60;99.90
10492;DHT22;5293;51.464;-2.566;2022-07-29T06:23:45;17.60;99.90
10492;DHT22;5293;51.464;-2.566;2022-07-29T06:26:11;17.80;99.90
10492;DHT22;5293;51.464;-2.566;2022-07-29T06:28:36;17.90;99.90
10492;DHT22;5293;51.464;-2.566;2022-07-29T06:31:02;18.00;99.90
10492;DHT22;5293;51.464;-2.566;2022-07-29T06:33:28;18.00;99.90
10492;DHT22;5293;51.464;-2.566;2022-07-29T06:35:53;18.10;99.90
10492;DHT22;5293;51.464;-2.566;2022-07-29T06:38:21;18.30;99.90
10492;DHT22;5293;51.464;-2.566;2022-07-29T06:40:46;18.50;99.90
10492;DHT22;5293;51.464;-2.566;2022-07-29T06:43:41;18.50;99.90
10492;DHT22;5293;51.464;-2.566;2022-07-29T06:46:09;18.50;99.90
10492;DHT22;5293;51.464;-2.566;2022-07-29T06:48:35;18.60;99.90
10492;DHT22;5293;51.464;-2.566;2022-07-29T06:51:02;18.70;99.90
10492;DHT22;5293;51.464;-2.566;2022-07-29T06:53:29;18.90;99.90
10492;DHT22;5293;51.464;-2.566;2022-07-29T06:55:55;19.00;99.90
10492;DHT22;5293;51.464;-2.566;2022-07-29T06:58:20;19.00;99.90
10492;DHT22;5293;51.464;-2.566;2022-07-29T07:00:47;19.20;99.90
10492;DHT22;5293;51.464;-2.566;2022-07-29T07:03:14;19.20;99.90
10492;DHT22;5293;51.464;-2.566;2022-07-29T07:05:39;19.30;99.90
10492;DHT22;5293;51.464;-2.566;2022-07-29T07:08:05;19.30;99.90
10492;DHT22;5293;51.464;-2.566;2022-07-29T07:10:32;19.40;99.90
10492;DHT22;5293;51.464;-2.566;2022-07-29T07:12:58;19.50;99.90
10492;DHT22;5293;51.464;-2.566;2022-07-29T07:15:24;19.50;99.90
10492;DHT22;5293;51.464;-2.566;2022-07-29T07:17:50;19.50;99.90
10492;DHT22;5293;51.464;-2.566;2022-07-29T07:20:16;19.70;99.90
10492;DHT22;5293;51.464;-2.566;2022-07-29T07:22:42;19.80;99.90
10492;DHT22;5293;51.464;-2.566;2022-07-29T07:25:08;19.90;99.90
10492;DHT22;5293;51.464;-2.566;2022-07-29T07:27:35;20.00;99.90
10492;DHT22;5293;51.464;-2.566;2022-07-29T07:30:01;19.90;99.90
10492;DHT22;5293;51.464;-2.566;2022-07-29T07:32:27;20.00;99.90
10492;DHT22;5293;51.464;-2.566;2022-07-29T07:34:52;20.10;99.90
10492;DHT22;5293;51.464;-2.566;2022-07-29T07:37:18;20.20;99.90
10492;DHT22;5293;51.464;-2.566;2022-07-29T07:39:46;20.20;99.90
10492;DHT22;5293;51.464;-2.566;2022-07-29T07:42:11;20.20;99.90
10492;DHT22;5293;51.464;-2.566;2022-07-29T07:44:39;20.30;99.90
10492;DHT22;5293;51.464;-2.566;2022-07-29T07:47:05;20.30;99.90
10492;DHT22;5293;51.464;-2.566;2022-07-29T07:49:31;20.30;99.90
10492;DHT22;5293;51.464;-2.566;2022-07-29T07:51:56;20.20;99.90
10492;DHT22;5293;51.464;-2.566;2022-07-29T07:54:22;20.30;99.90
10492;DHT22;5293;51.464;-2.566;2022-07-29T07:56:48;20.40;99.90
10492;DHT22;5293;51.464;-2.566;2022-07-29T07:59:15;20.50;99.90
10492;DHT22;5293;51.464;-2.566;2022-07-29T08:01:41;20.70;99.90
10492;DHT22;5293;51.464;-2.566;2022-07-29T08:04:06;20.90;99.90
10492;DHT22;5293;51.464;-2.566;2022-07-29T08:06:33;21.00;99.90
10492;DHT22;5293;51.464;-2.566;2022-07-29T08:09:00;21.10;99.90
10492;DHT22;5293;51.464;-2.566;2022-07-29T08:11:27;21.20;99.90
10492;DHT22;5293;51.464;-2.566;2022-07-29T08:13:52;21.10;99.90
10492;DHT22;5293;51.464;-2.566;2022-07-29T08:16:18;21.00;99.90
10492;DHT22;5293;51.464;-2.566;2022-07-29T08:18:45;21.10;99.90
10492;DHT22;5293;51.464;-2.566;2022-07-29T08:21:12;21.20;99.90
10492;DHT22;5293;51.464;-2.566;2022-07-29T08:23:37;21.40;99.90
10492;DHT22;5293;51.464;-2.566;2022-07-29T08:26:12;21.40;99.90
10492;DHT22;5293;51.464;-2.566;2022-07-29T08:28:39;21.60;99.90
10492;DHT22;5293;51.464;-2.566;2022-07-29T08:31:05;21.50;99.90
10492;DHT22;5293;51.464;-2.566;2022-07-29T08:33:32;21.60;99.90
10492;DHT22;5293;51.464;-2.566;2022-07-29T08:35:58;21.70;99.90
10492;DHT22;5293;51.464;-2.566;2022-07-29T08:38:24;21.70;99.90
10492;DHT22;5293;51.464;-2.566;2022-07-29T08:40:52;21.80;99.90
10492;DHT22;5293;51.464;-2.566;2022-07-29T08:43:18;21.80;99.90
10492;DHT22;5293;51.464;-2.566;2022-07-29T08:45:49;22.00;99.90
10492;DHT22;5293;51.464;-2.566;2022-07-29T08:48:18;22.10;99.90
10492;DHT22;5293;51.464;-2.566;2022-07-29T08:50:44;22.20;99.90
10492;DHT22;5293;51.464;-2.566;2022-07-29T08:53:15;22.10;99.90
10492;DHT22;5293;51.464;-2.566;2022-07-29T08:55:48;22.10;99.90
10492;DHT22;5293;51.464;-2.566;2022-07-29T08:58:15;22.20;99.90
10492;DHT22;5293;51.464;-2.566;2022-07-29T09:00:44;22.20;99.90
10492;DHT22;5293;51.464;-2.566;2022-07-29T09:03:14;22.30;99.90
10492;DHT22;5293;51.464;-2.566;2022-07-29T09:05:43;22.30;99.90
10492;DHT22;5293;51.464;-2.566;2022-07-29T09:08:10;22.40;99.90
10492;DHT22;5293;51.464;-2.566;2022-07-29T09:10:37;22.50;99.90
10492;DHT22;5293;51.464;-2.566;2022-07-29T09:13:02;22.60;99.90
10492;DHT22;5293;51.464;-2.566;2022-07-29T09:15:28;22.50;99.90
10492;DHT22;5293;51.464;-2.566;2022-07-29T09:17:54;22.60;99.90
10492;DHT22;5293;51.464;-2.566;2022-07-29T09:20:22;22.70;99.90
10492;DHT22;5293;51.464;-2.566;2022-07-29T09:22:49;22.80;99.90
10492;DHT22;5293;51.464;-2.566;2022-07-29T09:28:06;22.90;99.90
10492;DHT22;5293;51.464;-2.566;2022-07-29T09:30:32;23.00;99.90
10492;DHT22;5293;51.464;-2.566;2022-07-29T09:33:00;22.80;99.90
10492;DHT22;5293;51.464;-2.566;2022-07-29T09:35:27;22.80;99.90
10492;DHT22;5293;51.464;-2.566;2022-07-29T09:37:54;22.80;99.90
10492;DHT22;5293;51.464;-2.566;2022-07-29T09:40:23;23.00;99.90
10492;DHT22;5293;51.464;-2.566;2022-07-29T09:42:49;23.20;99.90
10492;DHT22;5293;51.464;-2.566;2022-07-29T09:45:29;23.20;99.90
10492;DHT22;5293;51.464;-2.566;2022-07-29T09:47:58;23.20;99.90
10492;DHT22;5293;51.464;-2.566;2022-07-29T09:50:39;23.10;99.90
10492;DHT22;5293;51.464;-2.566;2022-07-29T09:53:05;23.10;99.90
10492;DHT22;5293;51.464;-2.566;2022-07-29T09:55:31;23.30;99.90
10492;DHT22;5293;51.464;-2.566;2022-07-29T09:58:15;23.20;99.90
10492;DHT22;5293;51.464;-2.566;2022-07-29T10:00:42;23.30;99.90
10492;DHT22;5293;51.464;-2.566;2022-07-29T10:03:09;23.30;99.90
10492;DHT22;5293;51.464;-2.566;2022-07-29T10:05:34;23.40;99.90
10492;DHT22;5293;51.464;-2.566;2022-07-29T10:08:00;23.40;99.90
10492;DHT22;5293;51.464;-2.566;2022-07-29T10:10:29;23.40;99.90
10492;DHT22;5293;51.464;-2.566;2022-07-29T10:13:00;23.40;99.90
10492;DHT22;5293;51.464;-2.566;2022-07-29T10:15:28;23.40;99.90
10492;DHT22;5293;51.464;-2.566;2022-07-29T10:17:55;23.20;99.90
10492;DHT22;5293;51.464;-2.566;2022-07-29T10:20:22;23.30;99.90
10492;DHT22;5293;51.464;-2.566;2022-07-29T10:22:50;23.20;99.90
10492;DHT22;5293;51.464;-2.566;2022-07-29T10:25:16;23.40;99.90
10492;DHT22;5293;51.464;-2.566;2022-07-29T10:27:43;23.50;99.90
10492;DHT22;5293;51.464;-2.566;2022-07-29T10:30:11;23.70;99.90
10492;DHT22;5293;51.464;-2.566;2022-07-29T10:39:04;23.70;99.90
10492;DHT22;5293;51.464;-2.566;2022-07-29T10:41:23;23.80;99.90
10492;DHT22;5293;51.464;-2.566;2022-07-29T10:44:02;23.90;99.90
10492;DHT22;5293;51.464;-2.566;2022-07-29T10:46:37;24.00;99.90
10492;DHT22;5293;51.464;-2.566;2022-07-29T10:49:22;24.00;99.90
10492;DHT22;5293;51.464;-2.566;2022-07-29T10:52:07;24.10;99.90
10492;DHT22;5293;51.464;-2.566;2022-07-29T10:57:16;24.20;99.90
10492;DHT22;5293;51.464;-2.566;2022-07-29T10:59:44;24.20;99.90
10492;DHT22;5293;51.464;-2.566;2022-07-29T11:07:24;24.20;99.90
10492;DHT22;5293;51.464;-2.566;2022-07-29T11:15:20;24.30;99.90
10492;DHT22;5293;51.464;-2.566;2022-07-29T11:20:44;24.30;99.90
10492;DHT22;5293;51.464;-2.566;2022-07-29T11:26:24;24.20;99.90
10492;DHT22;5293;51.464;-2.566;2022-07-29T11:28:57;24.40;99.90
10492;DHT22;5293;51.464;-2.566;2022-07-29T11:31:40;24.50;99.90
10492;DHT22;5293;51.464;-2.566;2022-07-29T11:39:45;24.60;99.90
10492;DHT22;5293;51.464;-2.566;2022-07-29T11:47:52;24.60;99.90
10492;DHT22;5293;51.464;-2.566;2022-07-29T11:50:28;24.60;99.90
10492;DHT22;5293;51.464;-2.566;2022-07-29T11:52:55;24.60;99.90
10492;DHT22;5293;51.464;-2.566;2022-07-29T11:55:22;24.60;99.90
10492;DHT22;5293;51.464;-2.566;2022-07-29T11:57:50;24.60;99.90
10492;DHT22;5293;51.464;-2.566;2022-07-29T12:00:30;24.70;99.90
10492;DHT22;5293;51.464;-2.566;2022-07-29T12:02:57;24.80;99.90
10492;DHT22;5293;51.464;-2.566;2022-07-29T12:05:40;24.90;99.90
10492;DHT22;5293;51.464;-2.566;2022-07-29T12:10:33;24.90;99.90
10492;DHT22;5293;51.464;-2.566;2022-07-29T12:12:59;25.00;99.90
10492;DHT22;5293;51.464;-2.566;2022-07-29T12:15:24;25.10;99.90
10492;DHT22;5293;51.464;-2.566;2022-07-29T12:17:51;25.20;99.90
10492;DHT22;5293;51.464;-2.566;2022-07-29T12:20:29;25.10;99.90
10492;DHT22;5293;51.464;-2.566;2022-07-29T12:22:55;25.10;99.90
10492;DHT22;5293;51.464;-2.566;2022-07-29T12:25:23;25.20;99.90
10492;DHT22;5293;51.464;-2.566;2022-07-29T12:28:06;25.10;99.90
10492;DHT22;5293;51.464;-2.566;2022-07-29T12:30:41;25.00;99.90
10492;DHT22;5293;51.464;-2.566;2022-07-29T12:33:18;25.10;99.90
10492;DHT22;5293;51.464;-2.566;2022-07-29T12:35:47;25.30;99.90
10492;DHT22;5293;51.464;-2.566;2022-07-29T12:38:13;25.40;99.90
10492;DHT22;5293;51.464;-2.566;2022-07-29T12:40:40;25.50;99.90
10492;DHT22;5293;51.464;-2.566;2022-07-29T12:43:18;25.40;99.90
10492;DHT22;5293;51.464;-2.566;2022-07-29T12:45:56;25.40;99.90
10492;DHT22;5293;51.464;-2.566;2022-07-29T12:48:35;25.30;99.90
10492;DHT22;5293;51.464;-2.566;2022-07-29T12:51:03;25.20;99.90
10492;DHT22;5293;51.464;-2.566;2022-07-29T12:53:29;25.00;99.90
10492;DHT22;5293;51.464;-2.566;2022-07-29T12:55:56;25.10;99.90
10492;DHT22;5293;51.464;-2.566;2022-07-29T13:01:15;25.20;99.90
10492;DHT22;5293;51.464;-2.566;2022-07-29T13:03:57;25.20;99.90
10492;DHT22;5293;51.464;-2.566;2022-07-29T13:06:30;25.30;99.90
10492;DHT22;5293;51.464;-2.566;2022-07-29T13:09:09;25.50;99.90
10492;DHT22;5293;51.464;-2.566;2022-07-29T13:11:46;25.60;99.90
10492;DHT22;5293;51.464;-2.566;2022-07-29T13:14:14;25.60;99.90
10492;DHT22;5293;51.464;-2.566;2022-07-29T13:21:58;25.90;99.90
10492;DHT22;5293;51.464;-2.566;2022-07-29T13:24:24;25.90;99.90
10492;DHT22;5293;51.464;-2.566;2022-07-29T13:26:50;25.90;99.90
10492;DHT22;5293;51.464;-2.566;2022-07-29T13:29:17;25.80;99.90
10492;DHT22;5293;51.464;-2.566;2022-07-29T13:31:43;25.90;99.90
10492;DHT22;5293;51.464;-2.566;2022-07-29T13:34:08;25.90;99.90
10492;DHT22;5293;51.464;-2.566;2022-07-29T13:36:34;26.00;99.90
10492;DHT22;5293;51.464;-2.566;2022-07-29T13:39:00;26.00;99.90
10492;DHT22;5293;51.464;-2.566;2022-07-29T13:41:28;25.80;99.90
10492;DHT22;5293;51.464;-2.566;2022-07-29T13:43:53;25.80;99.90
10492;DHT22;5293;51.464;-2.566;2022-07-29T13:46:19;25.70;99.90
10492;DHT22;5293;51.464;-2.566;2022-07-29T13:48:45;25.70;99.90
10492;DHT22;5293;51.464;-2.566;2022-07-29T13:51:11;25.80;99.90
10492;DHT22;5293;51.464;-2.566;2022-07-29T13:53:38;25.90;99.90
10492;DHT22;5293;51.464;-2.566;2022-07-29T13:56:04;26.10;99.90
10492;DHT22;5293;51.464;-2.566;2022-07-29T13:58:33;26.00;99.90
10492;DHT22;5293;51.464;-2.566;2022-07-29T14:00:59;25.80;99.90
10492;DHT22;5293;51.464;-2.566;2022-07-29T14:03:24;25.70;99.90
10492;DHT22;5293;51.464;-2.566;2022-07-29T14:05:50;25.70;99.90
10492;DHT22;5293;51.464;-2.566;2022-07-29T14:08:16;25.70;99.90
10492;DHT22;5293;51.464;-2.566;2022-07-29T14:10:42;25.80;99.90
10492;DHT22;5293;51.464;-2.566;2022-07-29T14:13:08;26.10;99.90
10492;DHT22;5293;51.464;-2.566;2022-07-29T14:15:33;26.30;99.90
10492;DHT22;5293;51.464;-2.566;2022-07-29T14:17:59;26.40;99.90
10492;DHT22;5293;51.464;-2.566;2022-07-29T14:20:26;26.60;99.90
10492;DHT22;5293;51.464;-2.566;2022-07-29T14:22:53;26.60;99.90
10492;DHT22;5293;51.464;-2.566;2022-07-29T14:25:19;26.70;99.90
10492;DHT22;5293;51.464;-2.566;2022-07-29T14:27:45;26.70;99.90
10492;DHT22;5293;51.464;-2.566;2022-07-29T14:30:10;26.80;99.90
10492;DHT22;5293;51.464;-2.566;2022-07-29T14:32:36;26.80;99.90
10492;DHT22;5293;51.464;-2.566;2022-07-29T14:35:02;26.80;99.90
10492;DHT22;5293;51.464;-2.566;2022-07-29T14:37:28;26.80;99.90
10492;DHT22;5293;51.464;-2.566;2022-07-29T14:39:54;26.60;99.90
10492;DHT22;5293;51.464;-2.566;2022-07-29T14:42:24;26.70;99.90
10492;DHT22;5293;51.464;-2.566;2022-07-29T14:44:50;26.70;99.90
10492;DHT22;5293;51.464;-2.566;2022-07-29T14:47:16;26.60;99.90
10492;DHT22;5293;51.464;-2.566;2022-07-29T14:49:41;26.60;99.90
10492;DHT22;5293;51.464;-2.566;2022-07-29T14:52:07;26.50;99.90
10492;DHT22;5293;51.464;-2.566;2022-07-29T14:54:33;26.60;99.90
10492;DHT22;5293;51.464;-2.566;2022-07-29T14:56:58;26.60;99.90
10492;DHT22;5293;51.464;-2.566;2022-07-29T14:59:25;26.70;99.90
10492;DHT22;5293;51.464;-2.566;2022-07-29T15:01:51;26.70;99.90
10492;DHT22;5293;51.464;-2.566;2022-07-29T15:04:17;26.70;99.90
10492;DHT22;5293;51.464;-2.566;2022-07-29T15:06:42;26.80;99.90
10492;DHT22;5293;51.464;-2.566;2022-07-29T15:09:08;26.80;99.90
10492;DHT22;5293;51.464;-2.566;2022-07-29T15:11:34;26.90;99.90
10492;DHT22;5293;51.464;-2.566;2022-07-29T15:13:59;26.90;99.90
10492;DHT22;5293;51.464;-2.566;2022-07-29T15:16:25;27.00;99.90
10492;DHT22;5293;51.464;-2.566;2022-07-29T15:18:51;27.10;99.90
10492;DHT22;5293;51.464;-2.566;2022-07-29T15:21:16;27.20;99.90
10492;DHT22;5293;51.464;-2.566;2022-07-29T15:23:43;27.20;99.90
10492;DHT22;5293;51.464;-2.566;2022-07-29T15:26:09;27.10;99.90
10492;DHT22;5293;51.464;-2.566;2022-07-29T15:28:35;27.10;99.90
10492;DHT22;5293;51.464;-2.566;2022-07-29T15:31:01;27.00;99.90
10492;DHT22;5293;51.464;-2.566;2022-07-29T15:33:26;27.00;99.90
10492;DHT22;5293;51.464;-2.566;2022-07-29T15:35:53;26.90;99.90
10492;DHT22;5293;51.464;-2.566;2022-07-29T15:38:18;26.80;99.90
10492;DHT22;5293;51.464;-2.566;2022-07-29T15:40:44;26.90;99.90
10492;DHT22;5293;51.464;-2.566;2022-07-29T15:43:11;26.90;99.90
10492;DHT22;5293;51.464;-2.566;2022-07-29T15:45:38;27.00;99.90
10492;DHT22;5293;51.464;-2.566;2022-07-29T15:48:05;27.00;99.90
10492;DHT22;5293;51.464;-2.566;2022-07-29T15:50:32;26.70;99.90
10492;DHT22;5293;51.464;-2.566;2022-07-29T15:52:58;26.60;99.90
10492;DHT22;5293;51.464;-2.566;2022-07-29T15:55:23;26.60;99.90
10492;DHT22;5293;51.464;-2.566;2022-07-29T15:57:49;26.70;99.90
10492;DHT22;5293;51.464;-2.566;2022-07-29T16:00:15;26.70;99.90
10492;DHT22;5293;51.464;-2.566;2022-07-29T16:02:42;26.60;99.90
10492;DHT22;5293;51.464;-2.566;2022-07-29T16:05:08;26.60;99.90
10492;DHT22;5293;51.464;-2.566;2022-07-29T16:07:34;26.50;99.90
10492;DHT22;5293;51.464;-2.566;2022-07-29T16:10:00;26.40;99.90
10492;DHT22;5293;51.464;-2.566;2022-07-29T16:12:25;26.30;99.90
10492;DHT22;5293;51.464;-2.566;2022-07-29T16:14:51;26.20;99.90
10492;DHT22;5293;51.464;-2.566;2022-07-29T16:17:17;26.10;99.90
10492;DHT22;5293;51.464;-2.566;2022-07-29T16:19:43;26.20;99.90
10492;DHT22;5293;51.464;-2.566;2022-07-29T16:22:10;26.30;99.90
10492;DHT22;5293;51.464;-2.566;2022-07-29T16:24:36;26.30;99.90
10492;DHT22;5293;51.464;-2.566;2022-07-29T16:27:03;26.20;99.90
10492;DHT22;5293;51.464;-2.566;2022-07-29T16:29:28;26.10;99.90
10492;DHT22;5293;51.464;-2.566;2022-07-29T16:31:54;26.10;99.90
10492;DHT22;5293;51.464;-2.566;2022-07-29T16:34:20;26.20;99.90
10492;DHT22;5293;51.464;-2.566;2022-07-29T16:36:45;26.20;99.90
10492;DHT22;5293;51.464;-2.566;2022-07-29T16:39:11;26.20;99.90